createdAt,value
2024-01-27T00:00:45.455Z,3.88
2024-01-27T00:03:13.305Z,3.88
2024-01-27T00:05:42.379Z,3.85
2024-01-27T00:08:10.149Z,3.84
2024-01-27T00:10:37.959Z,3.75
2024-01-27T00:13:05.840Z,3.80
2024-01-27T00:15:33.784Z,3.81
2024-01-27T00:18:01.730Z,3.79
2024-01-27T00:20:29.582Z,3.77
2024-01-27T00:22:58.647Z,3.77
2024-01-27T00:25:26.356Z,3.75
2024-01-27T00:27:54.254Z,3.77
2024-01-27T00:30:22.161Z,3.75
2024-01-27T00:32:49.985Z,3.74
2024-01-27T00:35:17.849Z,3.75
2024-01-27T00:37:45.658Z,3.72
2024-01-27T00:40:15.415Z,3.70
2024-01-27T00:42:43.337Z,3.72
2024-01-27T00:45:11.541Z,3.74
2024-01-27T00:47:39.555Z,3.75
2024-01-27T00:50:09.596Z,3.73
2024-01-27T00:52:37.567Z,3.70
2024-01-27T00:55:06.086Z,3.69
2024-01-27T00:57:35.818Z,3.66
2024-01-27T01:00:03.840Z,3.67
2024-01-27T01:02:31.612Z,3.67
2024-01-27T01:04:59.373Z,3.66
2024-01-27T01:07:27.168Z,3.63
2024-01-27T01:09:54.881Z,3.63
2024-01-27T01:12:22.928Z,3.61
2024-01-27T01:14:52.191Z,3.60
2024-01-27T01:17:20.131Z,3.55
2024-01-27T01:19:48.135Z,3.55
2024-01-27T01:22:15.892Z,3.55
2024-01-27T01:24:43.616Z,3.53
2024-01-27T01:27:11.400Z,3.50
2024-01-27T01:29:39.145Z,3.52
2024-01-27T01:32:08.548Z,3.49
2024-01-27T01:34:37.068Z,3.47
2024-01-27T01:37:05.204Z,3.36
2024-01-27T01:39:33.047Z,3.30
2024-01-27T01:42:01.120Z,3.30
2024-01-27T01:44:32.679Z,3.30
2024-01-27T01:47:01.066Z,3.27
2024-01-27T01:49:30.492Z,3.27
2024-01-27T01:51:58.719Z,3.25
2024-01-27T01:54:28.993Z,3.22
2024-01-27T01:56:57.906Z,3.21
2024-01-27T01:59:25.690Z,3.25
2024-01-27T02:01:53.466Z,3.27
2024-01-27T02:04:21.246Z,3.27
2024-01-27T02:06:50.653Z,3.28
2024-01-27T02:09:18.645Z,3.30
2024-01-27T02:11:46.633Z,3.24
2024-01-27T02:14:14.836Z,3.27
2024-01-27T02:16:42.576Z,3.21
2024-01-27T02:19:10.687Z,3.17
2024-01-27T02:21:38.548Z,3.19
2024-01-27T02:24:10.935Z,3.19
2024-01-27T02:26:39.046Z,3.23
2024-01-27T02:29:06.814Z,3.25
2024-01-27T02:31:36.823Z,3.29
2024-01-27T02:34:04.610Z,3.34
2024-01-27T02:36:32.480Z,3.35
2024-01-27T02:39:00.328Z,3.34
2024-01-27T02:41:29.728Z,3.30
2024-01-27T02:43:57.397Z,3.28
2024-01-27T02:46:25.112Z,3.22
2024-01-27T02:48:52.960Z,3.21
2024-01-27T02:51:22.091Z,3.18
2024-01-27T02:53:49.887Z,3.18
2024-01-27T02:56:18.445Z,3.19
2024-01-27T02:58:47.871Z,3.19
2024-01-27T03:01:16.068Z,3.22
2024-01-27T03:03:44.034Z,3.17
2024-01-27T03:06:12.081Z,3.19
2024-01-27T03:08:39.854Z,3.18
2024-01-27T03:11:07.657Z,3.18
2024-01-27T03:13:37.761Z,3.18
2024-01-27T03:16:11.060Z,3.17
2024-01-27T03:18:39.289Z,3.15
2024-01-27T03:21:08.340Z,3.11
2024-01-27T03:23:37.255Z,3.06
2024-01-27T03:26:05.587Z,3.10
2024-01-27T03:28:35.543Z,3.07
2024-01-27T03:31:03.222Z,3.07
2024-01-27T03:33:32.459Z,3.05
2024-01-27T03:36:00.277Z,3.06
2024-01-27T03:38:28.711Z,3.06
2024-01-27T03:40:56.399Z,2.95
2024-01-27T03:43:24.497Z,3.10
2024-01-27T03:45:52.153Z,3.07
2024-01-27T03:48:20.782Z,3.10
2024-01-27T03:50:49.995Z,3.09
2024-01-27T03:53:17.732Z,3.10
2024-01-27T03:55:45.524Z,3.06
2024-01-27T03:58:13.245Z,3.09
2024-01-27T04:00:42.159Z,3.06
2024-01-27T04:03:12.330Z,3.07
2024-01-27T04:05:40.242Z,3.09
2024-01-27T04:08:09.510Z,3.07
2024-01-27T04:10:38.590Z,3.09
2024-01-27T04:13:06.474Z,3.05
2024-01-27T04:15:39.651Z,3.07
2024-01-27T04:18:09.715Z,3.11
2024-01-27T04:20:37.900Z,3.07
2024-01-27T04:23:06.062Z,3.08
2024-01-27T04:25:35.419Z,3.06
2024-01-27T04:28:03.145Z,3.05
2024-01-27T04:30:30.889Z,3.06
2024-01-27T04:32:58.735Z,3.07
2024-01-27T04:35:26.557Z,3.05
2024-01-27T04:37:54.329Z,3.01
2024-01-27T04:40:22.219Z,3.00
2024-01-27T04:42:51.295Z,3.01
2024-01-27T04:45:19.141Z,2.97
2024-01-27T04:47:47.007Z,2.92
2024-01-27T04:50:14.891Z,2.91
2024-01-27T04:52:42.933Z,2.88
2024-01-27T04:55:10.678Z,2.84
2024-01-27T04:57:38.450Z,2.82
2024-01-27T05:00:11.562Z,2.80
2024-01-27T05:02:39.313Z,2.79
2024-01-27T05:05:07.384Z,2.76
2024-01-27T05:07:35.368Z,2.71
2024-01-27T05:10:03.512Z,2.68
2024-01-27T05:12:31.433Z,2.68
2024-01-27T05:14:59.307Z,2.68
2024-01-27T05:17:28.394Z,2.64
2024-01-27T05:19:56.222Z,2.65
2024-01-27T05:22:23.919Z,2.66
2024-01-27T05:24:51.753Z,2.63
2024-01-27T05:27:19.477Z,2.63
2024-01-27T05:29:47.227Z,2.61
2024-01-27T05:32:15.025Z,2.63
2024-01-27T05:34:44.126Z,2.58
2024-01-27T05:37:11.920Z,2.61
2024-01-27T05:39:39.742Z,2.54
2024-01-27T05:42:07.865Z,2.56
2024-01-27T05:44:39.022Z,2.61
2024-01-27T05:47:11.165Z,2.61
2024-01-27T05:49:39.898Z,2.58
2024-01-27T05:52:09.122Z,2.64
2024-01-27T05:54:37.767Z,2.70
2024-01-27T05:57:06.097Z,2.77
2024-01-27T05:59:33.820Z,2.84
2024-01-27T06:02:02.728Z,2.81
2024-01-27T06:04:32.526Z,2.72
2024-01-27T06:07:01.313Z,2.77
2024-01-27T06:09:30.623Z,2.75
2024-01-27T06:12:01.011Z,2.71
2024-01-27T06:14:28.748Z,2.72
2024-01-27T06:16:56.516Z,2.77
2024-01-27T06:19:24.340Z,2.73
2024-01-27T06:21:52.323Z,2.79
2024-01-27T06:24:20.190Z,2.84
2024-01-27T06:26:49.439Z,2.82
2024-01-27T06:29:17.191Z,2.77
2024-01-27T06:31:44.847Z,2.74
2024-01-27T06:34:12.698Z,2.71
2024-01-27T06:36:40.507Z,2.68
2024-01-27T06:39:08.930Z,2.68
2024-01-27T06:41:36.731Z,2.69
2024-01-27T06:44:06.130Z,2.73
2024-01-27T06:46:33.884Z,2.70
2024-01-27T06:49:01.813Z,2.72
2024-01-27T06:51:29.785Z,2.74
2024-01-27T06:53:57.590Z,2.74
2024-01-27T06:56:25.299Z,2.74
2024-01-27T06:58:53.622Z,2.62
2024-01-27T07:01:22.778Z,2.79
2024-01-27T07:03:50.608Z,2.76
2024-01-27T07:06:18.676Z,2.76
2024-01-27T07:08:46.781Z,2.80
2024-01-27T07:11:14.661Z,2.77
2024-01-27T07:13:43.388Z,2.80
2024-01-27T07:16:11.120Z,2.78
2024-01-27T07:18:40.542Z,2.79
2024-01-27T07:21:09.450Z,2.80
2024-01-27T07:23:37.723Z,2.79
2024-01-27T07:26:05.620Z,2.75
2024-01-27T07:28:35.667Z,2.80
2024-01-27T07:31:03.509Z,2.77
2024-01-27T07:33:31.559Z,2.83
2024-01-27T07:36:00.781Z,2.84
2024-01-27T07:38:29.021Z,2.80
2024-01-27T07:40:56.783Z,2.88
2024-01-27T07:43:25.793Z,2.91
2024-01-27T07:45:54.717Z,2.95
2024-01-27T07:48:22.593Z,2.93
2024-01-27T07:50:53.685Z,2.96
2024-01-27T07:53:22.851Z,2.97
2024-01-27T07:55:52.097Z,3.00
2024-01-27T07:58:19.803Z,3.08
2024-01-27T08:00:47.996Z,3.09
2024-01-27T08:03:15.963Z,3.09
2024-01-27T08:05:43.982Z,3.21
2024-01-27T08:08:11.786Z,3.18
2024-01-27T08:10:41.281Z,3.20
2024-01-27T08:13:09.219Z,3.21
2024-01-27T08:15:37.209Z,3.32
2024-01-27T08:18:05.628Z,3.34
2024-01-27T08:20:33.669Z,3.38
2024-01-27T08:23:04.145Z,3.45
2024-01-27T08:25:35.628Z,3.49
2024-01-27T08:28:05.740Z,3.54
2024-01-27T08:30:33.730Z,3.55
2024-01-27T08:33:01.742Z,3.60
2024-01-27T08:35:29.678Z,3.63
2024-01-27T08:37:57.507Z,3.63
2024-01-27T08:40:25.190Z,3.67
2024-01-27T08:42:52.880Z,3.71
2024-01-27T08:45:22.160Z,3.65
2024-01-27T08:47:49.919Z,3.70
2024-01-27T08:50:17.855Z,3.69
2024-01-27T08:52:47.074Z,3.64
2024-01-27T08:55:14.949Z,3.63
2024-01-27T08:57:42.685Z,3.58
2024-01-27T09:00:11.720Z,3.63
2024-01-27T09:02:40.961Z,3.61
2024-01-27T09:05:09.585Z,3.69
2024-01-27T09:07:38.669Z,3.72
2024-01-27T09:10:07.868Z,3.80
2024-01-27T09:12:37.143Z,3.84
2024-01-27T09:15:07.018Z,3.96
2024-01-27T09:17:35.498Z,3.97
2024-01-27T09:20:05.255Z,3.97
2024-01-27T09:22:33.585Z,4.05
2024-01-27T09:25:01.366Z,4.03
2024-01-27T09:27:29.238Z,4.08
2024-01-27T09:29:57.075Z,4.14
2024-01-27T09:32:24.823Z,4.16
2024-01-27T09:34:54.917Z,4.21
2024-01-27T09:37:24.146Z,4.33
2024-01-27T09:39:56.759Z,4.31
2024-01-27T09:42:24.847Z,4.42
2024-01-27T09:44:56.226Z,4.41
2024-01-27T09:47:24.202Z,4.52
2024-01-27T09:49:53.088Z,4.55
2024-01-27T09:52:21.029Z,4.66
2024-01-27T09:54:49.361Z,4.65
2024-01-27T09:57:20.011Z,4.67
2024-01-27T09:59:51.774Z,4.73
2024-01-27T10:02:20.924Z,4.80
2024-01-27T10:04:50.783Z,4.87
2024-01-27T10:07:18.648Z,4.98
2024-01-27T10:09:46.672Z,5.04
2024-01-27T10:12:17.060Z,5.05
2024-01-27T10:14:46.846Z,5.08
2024-01-27T10:17:14.695Z,5.16
2024-01-27T10:19:45.478Z,5.25
2024-01-27T10:22:13.830Z,5.31
2024-01-27T10:24:41.618Z,5.46
2024-01-27T10:27:09.431Z,5.46
2024-01-27T10:29:38.587Z,5.53
2024-01-27T10:32:10.371Z,5.58
2024-01-27T10:34:38.253Z,5.65
2024-01-27T10:37:06.335Z,5.64
2024-01-27T10:39:37.064Z,5.60
2024-01-27T10:42:05.437Z,5.64
2024-01-27T10:44:37.368Z,5.67
2024-01-27T10:47:08.870Z,5.84
2024-01-27T10:49:40.334Z,5.88
2024-01-27T10:52:13.452Z,5.97
2024-01-27T10:54:42.546Z,6.01
2024-01-27T10:57:12.017Z,6.08
2024-01-27T10:59:43.312Z,6.01
2024-01-27T11:02:15.692Z,6.12
2024-01-27T11:04:44.671Z,6.24
2024-01-27T11:07:12.515Z,6.23
2024-01-27T11:09:42.339Z,6.30
2024-01-27T11:12:11.241Z,6.29
2024-01-27T11:14:42.954Z,6.31
2024-01-27T11:17:12.325Z,6.40
2024-01-27T11:19:42.514Z,6.40
2024-01-27T11:22:10.417Z,6.49
2024-01-27T11:24:38.227Z,6.49
2024-01-27T11:27:07.167Z,6.48
2024-01-27T11:29:37.357Z,6.46
2024-01-27T11:32:05.931Z,6.47
2024-01-27T11:34:46.187Z,6.48
2024-01-27T11:37:16.100Z,6.52
2024-01-27T11:39:44.054Z,6.56
2024-01-27T11:42:14.172Z,6.61
2024-01-27T11:44:43.099Z,6.63
2024-01-27T11:47:17.263Z,6.63
2024-01-27T11:49:53.291Z,6.61
2024-01-27T11:52:21.307Z,6.62
2024-01-27T11:54:55.479Z,6.70
2024-01-27T11:57:23.302Z,6.79
2024-01-27T11:59:51.221Z,6.88
2024-01-27T12:02:19.357Z,6.84
2024-01-27T12:04:49.601Z,6.83
2024-01-27T12:07:19.926Z,6.85
2024-01-27T12:09:48.523Z,6.93
2024-01-27T12:12:16.407Z,6.85
2024-01-27T12:14:47.247Z,6.89
2024-01-27T12:17:15.124Z,6.91
2024-01-27T12:19:50.631Z,6.92
2024-01-27T12:22:27.338Z,6.96
2024-01-27T12:24:55.894Z,6.97
2024-01-27T12:27:25.017Z,7.02
2024-01-27T12:29:53.203Z,7.05
2024-01-27T12:32:21.176Z,7.05
2024-01-27T12:34:51.856Z,7.10
2024-01-27T12:37:19.860Z,7.09
2024-01-27T12:39:47.952Z,7.14
2024-01-27T12:42:15.904Z,7.12
2024-01-27T12:44:43.793Z,7.11
2024-01-27T12:47:12.522Z,7.11
2024-01-27T12:49:40.497Z,7.18
2024-01-27T12:52:09.834Z,7.19
2024-01-27T12:54:40.124Z,7.21
2024-01-27T12:57:10.108Z,7.21
2024-01-27T12:59:38.045Z,7.15
2024-01-27T13:02:06.167Z,7.15
2024-01-27T13:04:33.972Z,7.18
2024-01-27T13:07:01.909Z,7.16
2024-01-27T13:09:31.639Z,7.11
2024-01-27T13:11:59.466Z,7.14
2024-01-27T13:14:27.280Z,7.15
2024-01-27T13:16:55.829Z,7.16
2024-01-27T13:19:23.780Z,7.14
2024-01-27T13:21:51.600Z,7.12
2024-01-27T13:24:19.446Z,7.13
2024-01-27T13:26:49.261Z,7.13
2024-01-27T13:29:17.055Z,7.11
2024-01-27T13:31:44.852Z,7.08
2024-01-27T13:34:12.857Z,7.08
2024-01-27T13:36:40.837Z,7.05
2024-01-27T13:39:09.529Z,7.04
2024-01-27T13:41:39.975Z,7.05
2024-01-27T13:44:09.071Z,7.04
2024-01-27T13:46:36.977Z,7.01
2024-01-27T13:49:05.396Z,6.98
2024-01-27T13:51:45.916Z,6.96
2024-01-27T13:54:13.746Z,6.95
2024-01-27T13:56:41.596Z,6.98
2024-01-27T13:59:09.870Z,6.96
2024-01-27T14:01:37.837Z,7.02
2024-01-27T14:04:06.525Z,7.00
2024-01-27T14:06:34.898Z,6.99
2024-01-27T14:09:04.409Z,6.97
2024-01-27T14:11:32.183Z,6.93
2024-01-27T14:13:59.944Z,6.88
2024-01-27T14:16:27.791Z,6.87
2024-01-27T14:18:55.534Z,6.81
2024-01-27T14:21:23.529Z,6.81
2024-01-27T14:23:51.576Z,6.80
2024-01-27T14:26:20.797Z,6.79
2024-01-27T14:28:50.468Z,6.77
2024-01-27T14:31:18.315Z,6.73
2024-01-27T14:33:46.755Z,6.72
2024-01-27T14:36:15.221Z,6.68
2024-01-27T14:38:43.141Z,6.72
2024-01-27T14:41:12.631Z,6.69
2024-01-27T14:43:41.736Z,6.68
2024-01-27T14:46:09.489Z,6.63
2024-01-27T14:48:40.344Z,6.62
2024-01-27T14:51:08.395Z,6.60
2024-01-27T14:53:37.414Z,6.54
2024-01-27T14:56:05.940Z,6.53
2024-01-27T14:58:35.880Z,6.53
2024-01-27T15:01:05.446Z,6.50
2024-01-27T15:03:35.879Z,6.48
2024-01-27T15:06:04.427Z,6.49
2024-01-27T15:08:32.539Z,6.47
2024-01-27T15:11:00.247Z,6.43
2024-01-27T15:13:28.011Z,6.42
2024-01-27T15:15:55.770Z,6.36
2024-01-27T15:18:25.035Z,6.38
2024-01-27T15:20:52.883Z,6.36
2024-01-27T15:23:24.248Z,6.38
2024-01-27T15:25:53.730Z,6.32
2024-01-27T15:28:21.737Z,6.28
2024-01-27T15:30:50.568Z,6.28
2024-01-27T15:33:18.668Z,6.18
2024-01-27T15:35:48.194Z,6.17
2024-01-27T15:38:15.965Z,6.21
2024-01-27T15:40:43.903Z,6.17
2024-01-27T15:43:11.722Z,6.14
2024-01-27T15:45:39.514Z,6.09
2024-01-27T15:48:09.071Z,6.10
2024-01-27T15:50:37.024Z,6.07
2024-01-27T15:53:06.375Z,6.07
2024-01-27T15:55:35.012Z,6.01
2024-01-27T15:58:03.083Z,5.97
2024-01-27T16:00:31.209Z,5.93
2024-01-27T16:02:59.116Z,5.80
2024-01-27T16:05:26.980Z,5.87
2024-01-27T16:07:54.767Z,5.85
2024-01-27T16:10:24.023Z,5.82
2024-01-27T16:12:51.670Z,5.77
2024-01-27T16:15:19.431Z,5.74
2024-01-27T16:17:47.261Z,5.66
2024-01-27T16:20:15.047Z,5.66
2024-01-27T16:22:43.529Z,5.63
2024-01-27T16:25:11.420Z,5.61
2024-01-27T16:27:40.539Z,5.59
2024-01-27T16:30:09.345Z,5.63
2024-01-27T16:32:37.165Z,5.57
2024-01-27T16:35:05.334Z,5.57
2024-01-27T16:37:33.649Z,5.51
2024-01-27T16:40:01.419Z,5.46
2024-01-27T16:42:30.565Z,5.46
2024-01-27T16:45:00.740Z,5.47
2024-01-27T16:47:28.507Z,5.36
2024-01-27T16:49:56.370Z,5.44
2024-01-27T16:52:25.472Z,5.42
2024-01-27T16:54:53.227Z,5.37
2024-01-27T16:57:20.949Z,5.35
2024-01-27T16:59:49.080Z,5.31
2024-01-27T17:02:18.214Z,5.30
2024-01-27T17:04:49.006Z,5.29
2024-01-27T17:07:16.744Z,5.27
2024-01-27T17:09:44.520Z,5.18
2024-01-27T17:12:12.751Z,5.15
2024-01-27T17:14:41.378Z,5.19
2024-01-27T17:17:09.427Z,5.14
2024-01-27T17:19:38.842Z,5.09
2024-01-27T17:22:06.597Z,5.12
2024-01-27T17:24:36.776Z,5.09
2024-01-27T17:29:37.254Z,5.02
2024-01-27T17:32:05.614Z,5.03
2024-01-27T17:34:33.864Z,4.94
2024-01-27T17:37:03.099Z,4.95
2024-01-27T17:39:30.949Z,4.97
2024-01-27T17:41:58.695Z,4.96
2024-01-27T17:44:26.440Z,4.92
2024-01-27T17:46:54.456Z,4.91
2024-01-27T17:49:23.653Z,4.87
2024-01-27T17:51:51.463Z,4.86
2024-01-27T17:54:20.907Z,4.85
2024-01-27T17:56:50.485Z,4.81
2024-01-27T17:59:21.170Z,4.74
2024-01-27T18:01:48.958Z,4.71
2024-01-27T18:04:16.977Z,4.61
2024-01-27T18:06:44.824Z,4.58
2024-01-27T18:09:12.832Z,4.61
2024-01-27T18:11:41.934Z,4.62
2024-01-27T18:14:09.708Z,4.63
2024-01-27T18:16:37.671Z,4.60
2024-01-27T18:19:05.634Z,4.62
2024-01-27T18:21:39.509Z,4.59
2024-01-27T18:24:07.535Z,4.62
2024-01-27T18:26:35.820Z,4.53
2024-01-27T18:29:04.996Z,4.45
2024-01-27T18:31:32.703Z,4.41
2024-01-27T18:34:00.632Z,4.42
2024-01-27T18:36:29.265Z,4.37
2024-01-27T18:38:57.119Z,4.37
2024-01-27T18:41:25.198Z,4.30
2024-01-27T18:43:52.946Z,4.32
2024-01-27T18:46:22.028Z,4.28
2024-01-27T18:48:50.756Z,4.18
2024-01-27T18:51:19.642Z,4.23
2024-01-27T18:53:50.876Z,4.16
2024-01-27T18:56:18.746Z,4.18
2024-01-27T18:58:48.653Z,4.17
2024-01-27T19:01:16.402Z,4.15
2024-01-27T19:03:45.576Z,4.13
2024-01-27T19:06:14.090Z,4.09
2024-01-27T19:08:41.862Z,4.07
2024-01-27T19:11:09.607Z,4.03
2024-01-27T19:13:37.597Z,4.03
2024-01-27T19:16:09.135Z,3.99
2024-01-27T19:18:37.521Z,3.93
2024-01-27T19:21:12.620Z,3.94
2024-01-27T19:23:40.431Z,3.95
2024-01-27T19:26:08.215Z,3.92
2024-01-27T19:28:39.004Z,3.91
2024-01-27T19:31:06.780Z,3.88
2024-01-27T19:33:34.994Z,3.86
2024-01-27T19:36:04.687Z,3.82
2024-01-27T19:38:33.838Z,3.78
2024-01-27T19:41:11.744Z,3.77
2024-01-27T19:43:47.839Z,3.77
2024-01-27T19:46:16.053Z,3.75
2024-01-27T19:48:44.249Z,3.71
2024-01-27T19:51:12.522Z,3.68
2024-01-27T19:53:41.702Z,3.65
2024-01-27T19:56:10.371Z,3.55
2024-01-27T19:58:38.355Z,3.57
2024-01-27T20:01:06.382Z,3.49
2024-01-27T20:03:36.904Z,3.54
2024-01-27T20:06:05.875Z,3.45
2024-01-27T20:08:33.801Z,3.44
2024-01-27T20:11:02.942Z,3.45
2024-01-27T20:13:30.687Z,3.42
2024-01-27T20:15:58.634Z,3.39
2024-01-27T20:18:26.585Z,3.37
2024-01-27T20:20:54.967Z,3.30
2024-01-27T20:23:22.841Z,3.29
2024-01-27T20:25:52.277Z,3.31
2024-01-27T20:28:23.111Z,3.31
2024-01-27T20:30:51.224Z,3.29
2024-01-27T20:33:21.757Z,3.28
2024-01-27T20:35:53.434Z,3.27
2024-01-27T20:38:23.576Z,3.23
2024-01-27T20:40:51.510Z,3.12
2024-01-27T20:43:19.230Z,3.13
2024-01-27T20:45:48.415Z,3.06
2024-01-27T20:48:20.301Z,3.05
2024-01-27T20:50:50.244Z,3.07
2024-01-27T20:53:18.027Z,3.04
2024-01-27T20:55:46.640Z,3.05
2024-01-27T20:58:14.388Z,3.06
2024-01-27T21:00:42.199Z,3.06
2024-01-27T21:03:11.566Z,3.04
2024-01-27T21:05:39.342Z,3.00
2024-01-27T21:08:07.668Z,2.99
2024-01-27T21:10:42.636Z,3.01
2024-01-27T21:13:10.381Z,3.02
2024-01-27T21:15:38.189Z,3.00
2024-01-27T21:18:07.082Z,2.99
2024-01-27T21:20:36.434Z,2.99
2024-01-27T21:23:05.351Z,2.81
2024-01-27T21:25:35.614Z,2.94
2024-01-27T21:28:03.276Z,2.95
2024-01-27T21:30:32.440Z,2.91
2024-01-27T21:33:00.528Z,2.91
2024-01-27T21:35:28.354Z,2.89
2024-01-27T21:37:57.462Z,2.84
2024-01-27T21:40:25.212Z,2.88
2024-01-27T21:42:53.023Z,2.85
2024-01-27T21:45:20.836Z,2.86
2024-01-27T21:47:49.026Z,2.83
2024-01-27T21:50:17.337Z,2.79
2024-01-27T21:52:45.306Z,2.79
2024-01-27T21:55:14.378Z,2.78
2024-01-27T21:57:42.180Z,2.79
2024-01-27T22:00:12.054Z,2.75
2024-01-27T22:02:41.853Z,2.69
2024-01-27T22:05:11.489Z,2.64
2024-01-27T22:07:39.397Z,2.70
2024-01-27T22:10:09.736Z,2.63
2024-01-27T22:12:38.906Z,2.48
2024-01-27T22:15:08.458Z,2.55
2024-01-27T22:17:38.985Z,2.53
2024-01-27T22:20:08.718Z,2.54
2024-01-27T22:22:38.947Z,2.52
2024-01-27T22:25:08.992Z,2.49
2024-01-27T22:27:40.799Z,2.47
2024-01-27T22:30:11.149Z,2.45
2024-01-27T22:32:39.958Z,2.48
2024-01-27T22:35:08.953Z,2.42
2024-01-27T22:37:38.438Z,2.43
2024-01-27T22:40:07.958Z,2.44
2024-01-27T22:42:36.622Z,2.41
2024-01-27T22:45:07.273Z,2.46
2024-01-27T22:47:36.380Z,2.43
2024-01-27T22:50:04.913Z,2.39
2024-01-27T22:52:32.946Z,2.38
2024-01-27T22:55:00.731Z,2.35
2024-01-27T22:57:30.325Z,2.35
2024-01-27T22:59:58.197Z,2.33
2024-01-27T23:02:27.312Z,2.36
2024-01-27T23:04:55.069Z,2.36
2024-01-27T23:07:22.879Z,2.31
2024-01-27T23:09:50.677Z,2.31
2024-01-27T23:12:18.478Z,2.29
2024-01-27T23:14:47.494Z,2.17
2024-01-27T23:17:15.216Z,2.19
2024-01-27T23:19:44.413Z,2.17
2024-01-27T23:22:12.715Z,2.21
2024-01-27T23:24:40.493Z,2.18
2024-01-27T23:27:09.425Z,2.19
2024-01-27T23:29:38.702Z,2.14
2024-01-27T23:32:07.027Z,2.15
2024-01-27T23:34:37.517Z,2.13
2024-01-27T23:37:06.855Z,2.17
2024-01-27T23:39:37.607Z,2.12
2024-01-27T23:42:05.906Z,2.13
2024-01-27T23:44:33.746Z,2.09
2024-01-27T23:47:01.590Z,2.07
2024-01-27T23:49:29.513Z,2.10
2024-01-27T23:51:57.241Z,2.13
2024-01-27T23:54:26.380Z,2.12
2024-01-27T23:56:54.092Z,2.12
2024-01-27T23:59:21.887Z,2.12
